sensor_id;sensor_type;location;lat;lon;timestamp;P1;durP1;ratioP1;P2;durP2;ratioP2
673;SDS011;319;48.764;9.174;2023-08-30T00:01:04;2.00;;;2.00;;
673;SDS011;319;48.764;9.174;2023-08-30T00:03:31;2.10;;;2.10;;
673;SDS011;319;48.764;9.174;2023-08-30T00:06:02;2.00;;;2.00;;
673;SDS011;319;48.764;9.174;2023-08-30T00:08:31;2.30;;;2.30;;
673;SDS011;319;48.764;9.174;2023-08-30T00:10:58;2.30;;;2.30;;
673;SDS011;319;48.764;9.174;2023-08-30T00:13:25;2.30;;;2.30;;
673;SDS011;319;48.764;9.174;2023-08-30T00:15:52;2.40;;;2.40;;
673;SDS011;319;48.764;9.174;2023-08-30T00:18:19;2.20;;;2.20;;
673;SDS011;319;48.764;9.174;2023-08-30T00:20:46;2.10;;;2.10;;
673;SDS011;319;48.764;9.174;2023-08-30T00:23:13;2.30;;;2.30;;
673;SDS011;319;48.764;9.174;2023-08-30T00:25:43;2.30;;;2.30;;
673;SDS011;319;48.764;9.174;2023-08-30T00:28:10;2.17;;;2.17;;
673;SDS011;319;48.764;9.174;2023-08-30T00:30:37;2.20;;;2.20;;
673;SDS011;319;48.764;9.174;2023-08-30T00:33:03;2.40;;;2.40;;
673;SDS011;319;48.764;9.174;2023-08-30T00:35:30;2.20;;;2.20;;
673;SDS011;319;48.764;9.174;2023-08-30T00:37:57;2.10;;;2.10;;
673;SDS011;319;48.764;9.174;2023-08-30T00:40:24;2.20;;;2.20;;
673;SDS011;319;48.764;9.174;2023-08-30T00:42:53;2.20;;;2.20;;
673;SDS011;319;48.764;9.174;2023-08-30T00:45:19;2.30;;;2.30;;
673;SDS011;319;48.764;9.174;2023-08-30T00:47:46;2.30;;;2.30;;
673;SDS011;319;48.764;9.174;2023-08-30T00:50:13;2.00;;;2.00;;
673;SDS011;319;48.764;9.174;2023-08-30T00:53:08;2.30;;;2.30;;
673;SDS011;319;48.764;9.174;2023-08-30T00:55:42;2.50;;;2.50;;
673;SDS011;319;48.764;9.174;2023-08-30T00:58:10;2.33;;;2.33;;
673;SDS011;319;48.764;9.174;2023-08-30T01:00:38;2.60;;;2.60;;
673;SDS011;319;48.764;9.174;2023-08-30T01:03:06;3.00;;;2.90;;
673;SDS011;319;48.764;9.174;2023-08-30T01:05:33;3.03;;;2.93;;
673;SDS011;319;48.764;9.174;2023-08-30T01:08:00;3.80;;;3.70;;
673;SDS011;319;48.764;9.174;2023-08-30T01:10:30;6.10;;;6.00;;
673;SDS011;319;48.764;9.174;2023-08-30T01:13:06;5.03;;;4.93;;
673;SDS011;319;48.764;9.174;2023-08-30T01:15:37;6.00;;;5.90;;
673;SDS011;319;48.764;9.174;2023-08-30T01:18:05;6.00;;;5.90;;
673;SDS011;319;48.764;9.174;2023-08-30T01:20:35;6.10;;;6.00;;
673;SDS011;319;48.764;9.174;2023-08-30T01:23:05;6.10;;;6.00;;
673;SDS011;319;48.764;9.174;2023-08-30T01:25:38;5.70;;;5.60;;
673;SDS011;319;48.764;9.174;2023-08-30T01:28:15;5.50;;;5.40;;
673;SDS011;319;48.764;9.174;2023-08-30T01:30:45;5.90;;;5.80;;
673;SDS011;319;48.764;9.174;2023-08-30T01:33:13;5.90;;;5.80;;
673;SDS011;319;48.764;9.174;2023-08-30T01:35:40;5.10;;;5.00;;
673;SDS011;319;48.764;9.174;2023-08-30T01:38:08;5.00;;;4.90;;
673;SDS011;319;48.764;9.174;2023-08-30T01:40:36;4.90;;;4.80;;
673;SDS011;319;48.764;9.174;2023-08-30T01:43:05;4.40;;;4.30;;
673;SDS011;319;48.764;9.174;2023-08-30T01:45:35;2.80;;;2.70;;
673;SDS011;319;48.764;9.174;2023-08-30T01:48:04;2.30;;;2.30;;
673;SDS011;319;48.764;9.174;2023-08-30T01:50:34;2.33;;;2.33;;
673;SDS011;319;48.764;9.174;2023-08-30T01:53:01;2.23;;;2.23;;
673;SDS011;319;48.764;9.174;2023-08-30T01:55:29;2.50;;;2.50;;
673;SDS011;319;48.764;9.174;2023-08-30T01:57:58;2.47;;;2.47;;
673;SDS011;319;48.764;9.174;2023-08-30T02:00:25;1.90;;;1.90;;
673;SDS011;319;48.764;9.174;2023-08-30T02:02:53;1.70;;;1.70;;
673;SDS011;319;48.764;9.174;2023-08-30T02:05:20;1.80;;;1.80;;
673;SDS011;319;48.764;9.174;2023-08-30T02:07:48;2.10;;;2.10;;
673;SDS011;319;48.764;9.174;2023-08-30T02:10:21;2.10;;;2.10;;
673;SDS011;319;48.764;9.174;2023-08-30T02:12:52;2.50;;;2.50;;
673;SDS011;319;48.764;9.174;2023-08-30T02:15:20;2.53;;;2.53;;
673;SDS011;319;48.764;9.174;2023-08-30T02:17:50;2.30;;;2.30;;
673;SDS011;319;48.764;9.174;2023-08-30T02:20:19;2.40;;;2.40;;
673;SDS011;319;48.764;9.174;2023-08-30T02:22:46;1.90;;;1.90;;
673;SDS011;319;48.764;9.174;2023-08-30T02:25:13;2.50;;;2.50;;
673;SDS011;319;48.764;9.174;2023-08-30T02:27:40;2.30;;;2.30;;
673;SDS011;319;48.764;9.174;2023-08-30T02:30:07;2.30;;;2.30;;
673;SDS011;319;48.764;9.174;2023-08-30T02:32:34;2.10;;;2.10;;
673;SDS011;319;48.764;9.174;2023-08-30T02:35:01;1.90;;;1.90;;
673;SDS011;319;48.764;9.174;2023-08-30T02:37:30;2.23;;;2.23;;
673;SDS011;319;48.764;9.174;2023-08-30T02:39:57;2.10;;;2.10;;
673;SDS011;319;48.764;9.174;2023-08-30T02:42:24;2.20;;;2.20;;
673;SDS011;319;48.764;9.174;2023-08-30T02:44:51;2.20;;;2.20;;
673;SDS011;319;48.764;9.174;2023-08-30T02:47:18;2.33;;;2.33;;
673;SDS011;319;48.764;9.174;2023-08-30T02:49:45;2.30;;;2.30;;
673;SDS011;319;48.764;9.174;2023-08-30T02:52:12;2.50;;;2.50;;
673;SDS011;319;48.764;9.174;2023-08-30T02:54:40;2.30;;;2.30;;
673;SDS011;319;48.764;9.174;2023-08-30T02:57:07;2.00;;;2.00;;
673;SDS011;319;48.764;9.174;2023-08-30T02:59:34;2.00;;;2.00;;
673;SDS011;319;48.764;9.174;2023-08-30T03:02:01;2.10;;;2.10;;
673;SDS011;319;48.764;9.174;2023-08-30T03:04:28;1.70;;;1.70;;
673;SDS011;319;48.764;9.174;2023-08-30T03:06:55;1.70;;;1.70;;
673;SDS011;319;48.764;9.174;2023-08-30T03:09:22;1.70;;;1.70;;
673;SDS011;319;48.764;9.174;2023-08-30T03:11:50;1.77;;;1.77;;
673;SDS011;319;48.764;9.174;2023-08-30T03:14:17;1.90;;;1.90;;
673;SDS011;319;48.764;9.174;2023-08-30T03:16:44;1.80;;;1.80;;
673;SDS011;319;48.764;9.174;2023-08-30T03:19:12;1.60;;;1.60;;
673;SDS011;319;48.764;9.174;2023-08-30T03:21:39;1.70;;;1.70;;
673;SDS011;319;48.764;9.174;2023-08-30T03:24:06;2.00;;;2.00;;
673;SDS011;319;48.764;9.174;2023-08-30T03:26:33;1.83;;;1.83;;
673;SDS011;319;48.764;9.174;2023-08-30T03:29:01;1.63;;;1.63;;
673;SDS011;319;48.764;9.174;2023-08-30T03:31:28;1.70;;;1.70;;
673;SDS011;319;48.764;9.174;2023-08-30T03:33:55;1.60;;;1.60;;
673;SDS011;319;48.764;9.174;2023-08-30T03:36:22;1.60;;;1.60;;
673;SDS011;319;48.764;9.174;2023-08-30T03:38:49;1.70;;;1.70;;
673;SDS011;319;48.764;9.174;2023-08-30T03:41:17;1.70;;;1.70;;
673;SDS011;319;48.764;9.174;2023-08-30T03:43:44;1.70;;;1.70;;
673;SDS011;319;48.764;9.174;2023-08-30T03:46:13;1.70;;;1.70;;
673;SDS011;319;48.764;9.174;2023-08-30T03:48:39;1.70;;;1.70;;
673;SDS011;319;48.764;9.174;2023-08-30T03:51:06;1.70;;;1.70;;
673;SDS011;319;48.764;9.174;2023-08-30T03:53:33;1.70;;;1.70;;
673;SDS011;319;48.764;9.174;2023-08-30T03:56:00;1.53;;;1.53;;
673;SDS011;319;48.764;9.174;2023-08-30T03:58:28;1.70;;;1.70;;
673;SDS011;319;48.764;9.174;2023-08-30T04:00:56;1.50;;;1.50;;
673;SDS011;319;48.764;9.174;2023-08-30T04:03:24;1.70;;;1.70;;
673;SDS011;319;48.764;9.174;2023-08-30T04:05:54;1.70;;;1.70;;
673;SDS011;319;48.764;9.174;2023-08-30T04:08:21;1.70;;;1.70;;
673;SDS011;319;48.764;9.174;2023-08-30T04:10:51;1.67;;;1.67;;
673;SDS011;319;48.764;9.174;2023-08-30T04:13:19;1.80;;;1.80;;
673;SDS011;319;48.764;9.174;2023-08-30T04:15:46;1.80;;;1.80;;
673;SDS011;319;48.764;9.174;2023-08-30T04:18:13;1.70;;;1.70;;
673;SDS011;319;48.764;9.174;2023-08-30T04:20:44;1.70;;;1.70;;
673;SDS011;319;48.764;9.174;2023-08-30T04:23:11;1.70;;;1.70;;
673;SDS011;319;48.764;9.174;2023-08-30T04:25:40;1.80;;;1.80;;
673;SDS011;319;48.764;9.174;2023-08-30T04:28:07;1.70;;;1.70;;
673;SDS011;319;48.764;9.174;2023-08-30T04:30:35;1.70;;;1.70;;
673;SDS011;319;48.764;9.174;2023-08-30T04:33:03;1.80;;;1.80;;
673;SDS011;319;48.764;9.174;2023-08-30T04:35:31;1.80;;;1.80;;
673;SDS011;319;48.764;9.174;2023-08-30T04:38:00;1.80;;;1.80;;
673;SDS011;319;48.764;9.174;2023-08-30T04:40:28;1.70;;;1.70;;
673;SDS011;319;48.764;9.174;2023-08-30T04:42:57;1.80;;;1.80;;
673;SDS011;319;48.764;9.174;2023-08-30T04:45:25;1.50;;;1.50;;
673;SDS011;319;48.764;9.174;2023-08-30T04:47:52;1.60;;;1.60;;
673;SDS011;319;48.764;9.174;2023-08-30T04:50:20;1.67;;;1.67;;
673;SDS011;319;48.764;9.174;2023-08-30T04:52:47;1.70;;;1.70;;
673;SDS011;319;48.764;9.174;2023-08-30T04:55:15;1.67;;;1.67;;
673;SDS011;319;48.764;9.174;2023-08-30T04:57:42;1.80;;;1.80;;
673;SDS011;319;48.764;9.174;2023-08-30T05:00:10;1.50;;;1.50;;
673;SDS011;319;48.764;9.174;2023-08-30T05:02:38;1.70;;;1.70;;
673;SDS011;319;48.764;9.174;2023-08-30T05:05:06;1.70;;;1.70;;
673;SDS011;319;48.764;9.174;2023-08-30T05:07:33;1.80;;;1.80;;
673;SDS011;319;48.764;9.174;2023-08-30T05:10:00;1.40;;;1.40;;
673;SDS011;319;48.764;9.174;2023-08-30T05:12:29;4.97;;;4.77;;
673;SDS011;319;48.764;9.174;2023-08-30T05:14:56;1.70;;;1.70;;
673;SDS011;319;48.764;9.174;2023-08-30T05:17:23;1.77;;;1.77;;
673;SDS011;319;48.764;9.174;2023-08-30T05:19:50;1.50;;;1.50;;
673;SDS011;319;48.764;9.174;2023-08-30T05:22:17;1.90;;;1.90;;
673;SDS011;319;48.764;9.174;2023-08-30T05:24:44;1.87;;;1.87;;
673;SDS011;319;48.764;9.174;2023-08-30T05:27:11;1.90;;;1.90;;
673;SDS011;319;48.764;9.174;2023-08-30T05:29:41;1.37;;;1.37;;
673;SDS011;319;48.764;9.174;2023-08-30T05:32:08;1.80;;;1.80;;
673;SDS011;319;48.764;9.174;2023-08-30T05:34:35;1.87;;;1.87;;
673;SDS011;319;48.764;9.174;2023-08-30T05:37:02;1.90;;;1.90;;
673;SDS011;319;48.764;9.174;2023-08-30T05:39:29;1.90;;;1.90;;
673;SDS011;319;48.764;9.174;2023-08-30T05:41:56;2.00;;;2.00;;
673;SDS011;319;48.764;9.174;2023-08-30T05:44:22;2.00;;;2.00;;
673;SDS011;319;48.764;9.174;2023-08-30T05:46:51;1.80;;;1.80;;
673;SDS011;319;48.764;9.174;2023-08-30T05:49:18;1.47;;;1.47;;
673;SDS011;319;48.764;9.174;2023-08-30T05:51:44;1.80;;;1.80;;
673;SDS011;319;48.764;9.174;2023-08-30T05:54:12;1.80;;;1.80;;
673;SDS011;319;48.764;9.174;2023-08-30T05:56:39;1.87;;;1.87;;
673;SDS011;319;48.764;9.174;2023-08-30T05:59:07;1.60;;;1.60;;
673;SDS011;319;48.764;9.174;2023-08-30T06:01:35;2.00;;;2.00;;
673;SDS011;319;48.764;9.174;2023-08-30T06:04:04;2.10;;;2.10;;
673;SDS011;319;48.764;9.174;2023-08-30T06:06:31;1.80;;;1.80;;
673;SDS011;319;48.764;9.174;2023-08-30T06:08:58;1.93;;;1.93;;
673;SDS011;319;48.764;9.174;2023-08-30T06:11:25;2.10;;;2.10;;
673;SDS011;319;48.764;9.174;2023-08-30T06:13:52;1.90;;;1.90;;
673;SDS011;319;48.764;9.174;2023-08-30T06:16:20;1.73;;;1.73;;
673;SDS011;319;48.764;9.174;2023-08-30T06:18:46;2.10;;;2.10;;
673;SDS011;319;48.764;9.174;2023-08-30T06:21:15;2.10;;;2.10;;
673;SDS011;319;48.764;9.174;2023-08-30T06:23:42;1.80;;;1.80;;
673;SDS011;319;48.764;9.174;2023-08-30T06:26:09;2.10;;;2.10;;
673;SDS011;319;48.764;9.174;2023-08-30T06:28:36;2.10;;;2.10;;
673;SDS011;319;48.764;9.174;2023-08-30T06:31:03;1.90;;;1.90;;
673;SDS011;319;48.764;9.174;2023-08-30T06:33:30;1.90;;;1.90;;
673;SDS011;319;48.764;9.174;2023-08-30T06:35:57;2.10;;;2.10;;
673;SDS011;319;48.764;9.174;2023-08-30T06:38:25;2.20;;;2.20;;
673;SDS011;319;48.764;9.174;2023-08-30T06:40:52;1.73;;;1.73;;
673;SDS011;319;48.764;9.174;2023-08-30T06:43:19;2.20;;;2.20;;
673;SDS011;319;48.764;9.174;2023-08-30T06:45:46;2.10;;;2.10;;
673;SDS011;319;48.764;9.174;2023-08-30T06:48:13;2.10;;;2.10;;
673;SDS011;319;48.764;9.174;2023-08-30T06:50:39;2.13;;;2.13;;
673;SDS011;319;48.764;9.174;2023-08-30T06:53:06;2.00;;;2.00;;
673;SDS011;319;48.764;9.174;2023-08-30T06:55:35;4.73;;;4.63;;
673;SDS011;319;48.764;9.174;2023-08-30T06:58:03;2.67;;;2.67;;
673;SDS011;319;48.764;9.174;2023-08-30T07:00:31;2.37;;;2.37;;
673;SDS011;319;48.764;9.174;2023-08-30T07:02:58;2.90;;;2.80;;
673;SDS011;319;48.764;9.174;2023-08-30T07:05:25;3.10;;;3.00;;
673;SDS011;319;48.764;9.174;2023-08-30T07:07:52;4.50;;;4.40;;
673;SDS011;319;48.764;9.174;2023-08-30T07:10:19;5.20;;;5.10;;
673;SDS011;319;48.764;9.174;2023-08-30T07:12:47;7.67;;;7.47;;
673;SDS011;319;48.764;9.174;2023-08-30T07:15:14;5.63;;;5.53;;
673;SDS011;319;48.764;9.174;2023-08-30T07:17:42;5.90;;;5.80;;
673;SDS011;319;48.764;9.174;2023-08-30T07:20:10;5.93;;;5.83;;
673;SDS011;319;48.764;9.174;2023-08-30T07:22:37;6.60;;;6.40;;
673;SDS011;319;48.764;9.174;2023-08-30T07:25:04;6.80;;;6.60;;
673;SDS011;319;48.764;9.174;2023-08-30T07:27:32;6.80;;;6.60;;
673;SDS011;319;48.764;9.174;2023-08-30T07:30:00;4.67;;;4.57;;
673;SDS011;319;48.764;9.174;2023-08-30T07:32:29;6.43;;;6.30;;
673;SDS011;319;48.764;9.174;2023-08-30T07:34:56;6.60;;;6.40;;
673;SDS011;319;48.764;9.174;2023-08-30T07:37:23;6.90;;;6.70;;
673;SDS011;319;48.764;9.174;2023-08-30T07:39:51;5.43;;;5.33;;
673;SDS011;319;48.764;9.174;2023-08-30T07:42:18;7.30;;;7.10;;
673;SDS011;319;48.764;9.174;2023-08-30T07:44:45;7.20;;;7.00;;
673;SDS011;319;48.764;9.174;2023-08-30T07:47:14;6.80;;;6.60;;
673;SDS011;319;48.764;9.174;2023-08-30T07:49:41;5.13;;;5.03;;
673;SDS011;319;48.764;9.174;2023-08-30T07:52:08;7.00;;;6.80;;
673;SDS011;319;48.764;9.174;2023-08-30T07:54:36;6.70;;;6.50;;
673;SDS011;319;48.764;9.174;2023-08-30T07:57:04;6.70;;;6.50;;
673;SDS011;319;48.764;9.174;2023-08-30T07:59:32;7.20;;;7.00;;
673;SDS011;319;48.764;9.174;2023-08-30T08:02:00;7.17;;;6.97;;
673;SDS011;319;48.764;9.174;2023-08-30T08:04:29;6.57;;;6.40;;
673;SDS011;319;48.764;9.174;2023-08-30T08:06:56;7.00;;;6.80;;
673;SDS011;319;48.764;9.174;2023-08-30T08:09:23;5.40;;;5.30;;
673;SDS011;319;48.764;9.174;2023-08-30T08:11:50;4.40;;;4.30;;
673;SDS011;319;48.764;9.174;2023-08-30T08:14:17;7.93;;;7.73;;
673;SDS011;319;48.764;9.174;2023-08-30T08:16:44;8.57;;;8.37;;
673;SDS011;319;48.764;9.174;2023-08-30T08:19:11;8.43;;;8.23;;
673;SDS011;319;48.764;9.174;2023-08-30T08:21:39;8.30;;;8.10;;
673;SDS011;319;48.764;9.174;2023-08-30T08:24:06;8.10;;;7.90;;
673;SDS011;319;48.764;9.174;2023-08-30T08:26:33;8.40;;;8.20;;
673;SDS011;319;48.764;9.174;2023-08-30T08:29:00;7.60;;;7.40;;
673;SDS011;319;48.764;9.174;2023-08-30T08:31:28;6.73;;;6.53;;
673;SDS011;319;48.764;9.174;2023-08-30T08:34:06;8.70;;;8.50;;
673;SDS011;319;48.764;9.174;2023-08-30T08:36:34;8.60;;;8.40;;
673;SDS011;319;48.764;9.174;2023-08-30T08:39:03;8.40;;;8.20;;
673;SDS011;319;48.764;9.174;2023-08-30T08:41:33;8.90;;;8.70;;
673;SDS011;319;48.764;9.174;2023-08-30T08:44:03;8.87;;;8.67;;
673;SDS011;319;48.764;9.174;2023-08-30T08:46:32;9.30;;;9.10;;
673;SDS011;319;48.764;9.174;2023-08-30T08:49:01;5.60;;;5.50;;
673;SDS011;319;48.764;9.174;2023-08-30T08:51:32;5.87;;;5.77;;
673;SDS011;319;48.764;9.174;2023-08-30T08:54:01;8.10;;;7.90;;
673;SDS011;319;48.764;9.174;2023-08-30T08:56:31;8.83;;;8.63;;
673;SDS011;319;48.764;9.174;2023-08-30T08:58:59;3.87;;;3.77;;
673;SDS011;319;48.764;9.174;2023-08-30T09:01:26;5.20;;;5.10;;
673;SDS011;319;48.764;9.174;2023-08-30T09:03:53;5.50;;;5.40;;
673;SDS011;319;48.764;9.174;2023-08-30T09:06:21;6.33;;;6.23;;
673;SDS011;319;48.764;9.174;2023-08-30T09:08:48;4.87;;;4.77;;
673;SDS011;319;48.764;9.174;2023-08-30T09:11:17;6.47;;;6.33;;
673;SDS011;319;48.764;9.174;2023-08-30T09:13:44;7.50;;;7.30;;
673;SDS011;319;48.764;9.174;2023-08-30T09:16:11;5.10;;;5.00;;
673;SDS011;319;48.764;9.174;2023-08-30T09:18:39;9.30;;;9.10;;
673;SDS011;319;48.764;9.174;2023-08-30T09:21:06;11.50;;;11.20;;
673;SDS011;319;48.764;9.174;2023-08-30T09:23:34;8.20;;;8.00;;
673;SDS011;319;48.764;9.174;2023-08-30T09:26:01;8.33;;;8.13;;
673;SDS011;319;48.764;9.174;2023-08-30T09:28:30;4.90;;;4.80;;
673;SDS011;319;48.764;9.174;2023-08-30T09:30:58;7.80;;;7.60;;
673;SDS011;319;48.764;9.174;2023-08-30T09:33:34;11.40;;;11.10;;
673;SDS011;319;48.764;9.174;2023-08-30T09:36:01;12.00;;;11.70;;
673;SDS011;319;48.764;9.174;2023-08-30T09:38:28;9.63;;;9.43;;
673;SDS011;319;48.764;9.174;2023-08-30T09:41:02;10.57;;;10.27;;
673;SDS011;319;48.764;9.174;2023-08-30T09:43:32;13.20;;;12.80;;
673;SDS011;319;48.764;9.174;2023-08-30T09:46:02;12.00;;;11.70;;
673;SDS011;319;48.764;9.174;2023-08-30T09:48:31;11.50;;;11.20;;
673;SDS011;319;48.764;9.174;2023-08-30T09:50:58;9.50;;;9.30;;
673;SDS011;319;48.764;9.174;2023-08-30T09:53:28;6.77;;;6.57;;
673;SDS011;319;48.764;9.174;2023-08-30T09:56:02;10.37;;;10.07;;
673;SDS011;319;48.764;9.174;2023-08-30T09:58:29;12.40;;;12.10;;
673;SDS011;319;48.764;9.174;2023-08-30T10:00:58;12.20;;;11.90;;
673;SDS011;319;48.764;9.174;2023-08-30T10:03:27;12.73;;;12.43;;
673;SDS011;319;48.764;9.174;2023-08-30T10:05:55;9.63;;;9.43;;
673;SDS011;319;48.764;9.174;2023-08-30T10:08:24;10.67;;;10.37;;
673;SDS011;319;48.764;9.174;2023-08-30T10:10:56;10.50;;;10.20;;
673;SDS011;319;48.764;9.174;2023-08-30T10:13:25;9.70;;;9.50;;
673;SDS011;319;48.764;9.174;2023-08-30T10:16:01;8.80;;;8.60;;
673;SDS011;319;48.764;9.174;2023-08-30T10:18:29;12.40;;;12.10;;
673;SDS011;319;48.764;9.174;2023-08-30T10:20:59;10.80;;;10.50;;
673;SDS011;319;48.764;9.174;2023-08-30T10:23:33;10.90;;;10.60;;
673;SDS011;319;48.764;9.174;2023-08-30T10:26:03;10.50;;;10.20;;
673;SDS011;319;48.764;9.174;2023-08-30T10:28:32;10.40;;;10.10;;
673;SDS011;319;48.764;9.174;2023-08-30T10:31:01;8.40;;;8.20;;
673;SDS011;319;48.764;9.174;2023-08-30T10:33:29;9.63;;;9.43;;
673;SDS011;319;48.764;9.174;2023-08-30T10:36:02;11.40;;;11.10;;
673;SDS011;319;48.764;9.174;2023-08-30T10:38:32;9.80;;;9.60;;
673;SDS011;319;48.764;9.174;2023-08-30T10:41:06;9.70;;;9.50;;
673;SDS011;319;48.764;9.174;2023-08-30T10:43:35;11.43;;;11.13;;
673;SDS011;319;48.764;9.174;2023-08-30T10:46:04;13.30;;;12.90;;
673;SDS011;319;48.764;9.174;2023-08-30T10:48:36;12.00;;;11.70;;
673;SDS011;319;48.764;9.174;2023-08-30T10:51:05;11.90;;;11.60;;
673;SDS011;319;48.764;9.174;2023-08-30T10:53:42;13.40;;;13.10;;
673;SDS011;319;48.764;9.174;2023-08-30T10:56:09;12.63;;;12.33;;
673;SDS011;319;48.764;9.174;2023-08-30T10:58:43;12.60;;;12.30;;
673;SDS011;319;48.764;9.174;2023-08-30T11:01:11;7.00;;;6.80;;
673;SDS011;319;48.764;9.174;2023-08-30T11:03:41;1.20;;;1.20;;
673;SDS011;319;48.764;9.174;2023-08-30T11:06:13;1.30;;;1.30;;
673;SDS011;319;48.764;9.174;2023-08-30T11:08:41;1.50;;;1.50;;
673;SDS011;319;48.764;9.174;2023-08-30T11:11:09;1.70;;;1.70;;
673;SDS011;319;48.764;9.174;2023-08-30T11:13:39;1.00;;;1.00;;
673;SDS011;319;48.764;9.174;2023-08-30T11:16:05;0.90;;;0.90;;
673;SDS011;319;48.764;9.174;2023-08-30T11:18:37;0.90;;;0.90;;
673;SDS011;319;48.764;9.174;2023-08-30T11:21:06;1.00;;;1.00;;
673;SDS011;319;48.764;9.174;2023-08-30T11:23:34;1.00;;;1.00;;
673;SDS011;319;48.764;9.174;2023-08-30T11:26:01;0.90;;;0.90;;
673;SDS011;319;48.764;9.174;2023-08-30T11:28:29;0.90;;;0.90;;
673;SDS011;319;48.764;9.174;2023-08-30T11:30:56;0.90;;;0.90;;
673;SDS011;319;48.764;9.174;2023-08-30T11:33:23;0.90;;;0.90;;
673;SDS011;319;48.764;9.174;2023-08-30T11:35:51;0.90;;;0.90;;
673;SDS011;319;48.764;9.174;2023-08-30T11:38:19;0.90;;;0.90;;
673;SDS011;319;48.764;9.174;2023-08-30T11:40:48;0.90;;;0.90;;
673;SDS011;319;48.764;9.174;2023-08-30T11:43:16;0.90;;;0.90;;
673;SDS011;319;48.764;9.174;2023-08-30T11:45:44;1.00;;;1.00;;
673;SDS011;319;48.764;9.174;2023-08-30T11:48:11;0.90;;;0.90;;
673;SDS011;319;48.764;9.174;2023-08-30T11:50:38;1.53;;;1.53;;
673;SDS011;319;48.764;9.174;2023-08-30T11:53:08;2.30;;;2.30;;
673;SDS011;319;48.764;9.174;2023-08-30T11:55:36;3.07;;;2.97;;
673;SDS011;319;48.764;9.174;2023-08-30T12:00:39;5.67;;;5.57;;
673;SDS011;319;48.764;9.174;2023-08-30T12:03:07;10.33;;;10.03;;
673;SDS011;319;48.764;9.174;2023-08-30T12:05:35;10.30;;;10.00;;
673;SDS011;319;48.764;9.174;2023-08-30T12:08:18;4.90;;;4.80;;
673;SDS011;319;48.764;9.174;2023-08-30T12:10:46;6.70;;;6.50;;
673;SDS011;319;48.764;9.174;2023-08-30T12:13:19;8.50;;;8.30;;
673;SDS011;319;48.764;9.174;2023-08-30T12:15:47;10.43;;;10.13;;
673;SDS011;319;48.764;9.174;2023-08-30T12:18:17;8.60;;;8.40;;
673;SDS011;319;48.764;9.174;2023-08-30T12:20:51;9.80;;;9.50;;
673;SDS011;319;48.764;9.174;2023-08-30T12:23:21;6.70;;;6.50;;
673;SDS011;319;48.764;9.174;2023-08-30T12:26:01;9.50;;;9.30;;
673;SDS011;319;48.764;9.174;2023-08-30T12:28:30;7.50;;;7.30;;
673;SDS011;319;48.764;9.174;2023-08-30T12:30:59;8.33;;;8.13;;
673;SDS011;319;48.764;9.174;2023-08-30T12:33:26;8.60;;;8.40;;
673;SDS011;319;48.764;9.174;2023-08-30T12:35:53;7.60;;;7.40;;
673;SDS011;319;48.764;9.174;2023-08-30T12:38:23;1.10;;;1.10;;
673;SDS011;319;48.764;9.174;2023-08-30T12:40:50;6.20;;;6.10;;
673;SDS011;319;48.764;9.174;2023-08-30T12:43:18;8.03;;;7.83;;
673;SDS011;319;48.764;9.174;2023-08-30T12:45:46;8.70;;;8.50;;
673;SDS011;319;48.764;9.174;2023-08-30T12:48:14;8.90;;;8.70;;
673;SDS011;319;48.764;9.174;2023-08-30T12:50:42;10.77;;;10.47;;
673;SDS011;319;48.764;9.174;2023-08-30T12:53:10;11.90;;;11.60;;
673;SDS011;319;48.764;9.174;2023-08-30T12:55:39;10.00;;;9.80;;
673;SDS011;319;48.764;9.174;2023-08-30T12:58:06;8.77;;;8.57;;
673;SDS011;319;48.764;9.174;2023-08-30T13:00:33;10.53;;;10.23;;
673;SDS011;319;48.764;9.174;2023-08-30T13:03:01;11.90;;;11.60;;
673;SDS011;319;48.764;9.174;2023-08-30T13:05:30;9.27;;;9.07;;
673;SDS011;319;48.764;9.174;2023-08-30T13:07:58;8.77;;;8.57;;
673;SDS011;319;48.764;9.174;2023-08-30T13:10:25;5.47;;;5.37;;
673;SDS011;319;48.764;9.174;2023-08-30T13:12:53;7.03;;;6.83;;
673;SDS011;319;48.764;9.174;2023-08-30T13:15:20;1.30;;;1.30;;
673;SDS011;319;48.764;9.174;2023-08-30T13:17:47;1.00;;;1.00;;
673;SDS011;319;48.764;9.174;2023-08-30T13:20:14;7.17;;;6.97;;
673;SDS011;319;48.764;9.174;2023-08-30T13:22:41;7.43;;;7.23;;
673;SDS011;319;48.764;9.174;2023-08-30T13:25:08;10.37;;;10.07;;
673;SDS011;319;48.764;9.174;2023-08-30T13:27:36;9.70;;;9.50;;
673;SDS011;319;48.764;9.174;2023-08-30T13:30:05;7.13;;;6.93;;
673;SDS011;319;48.764;9.174;2023-08-30T13:32:32;8.80;;;8.60;;
673;SDS011;319;48.764;9.174;2023-08-30T13:35:00;9.00;;;8.80;;
673;SDS011;319;48.764;9.174;2023-08-30T13:37:27;9.70;;;9.50;;
673;SDS011;319;48.764;9.174;2023-08-30T13:39:54;7.10;;;6.90;;
673;SDS011;319;48.764;9.174;2023-08-30T13:42:21;10.90;;;10.60;;
673;SDS011;319;48.764;9.174;2023-08-30T13:44:50;9.20;;;9.00;;
673;SDS011;319;48.764;9.174;2023-08-30T13:47:18;9.40;;;9.20;;
673;SDS011;319;48.764;9.174;2023-08-30T13:49:45;4.07;;;3.97;;
673;SDS011;319;48.764;9.174;2023-08-30T13:52:12;7.90;;;7.70;;
673;SDS011;319;48.764;9.174;2023-08-30T13:54:40;6.60;;;6.40;;
673;SDS011;319;48.764;9.174;2023-08-30T13:57:06;7.60;;;7.40;;
673;SDS011;319;48.764;9.174;2023-08-30T13:59:33;6.20;;;6.10;;
673;SDS011;319;48.764;9.174;2023-08-30T14:02:01;7.70;;;7.50;;
673;SDS011;319;48.764;9.174;2023-08-30T14:04:30;7.77;;;7.57;;
673;SDS011;319;48.764;9.174;2023-08-30T14:06:59;7.50;;;7.30;;
673;SDS011;319;48.764;9.174;2023-08-30T14:09:26;6.60;;;6.40;;
673;SDS011;319;48.764;9.174;2023-08-30T14:11:53;7.30;;;7.10;;
673;SDS011;319;48.764;9.174;2023-08-30T14:14:20;7.00;;;6.80;;
673;SDS011;319;48.764;9.174;2023-08-30T14:16:47;7.60;;;7.40;;
673;SDS011;319;48.764;9.174;2023-08-30T14:19:14;7.23;;;7.03;;
673;SDS011;319;48.764;9.174;2023-08-30T14:21:44;7.90;;;7.70;;
673;SDS011;319;48.764;9.174;2023-08-30T14:24:11;8.00;;;7.80;;
673;SDS011;319;48.764;9.174;2023-08-30T14:26:38;6.90;;;6.70;;
673;SDS011;319;48.764;9.174;2023-08-30T14:29:05;5.60;;;5.50;;
673;SDS011;319;48.764;9.174;2023-08-30T14:31:31;5.77;;;5.67;;
673;SDS011;319;48.764;9.174;2023-08-30T14:33:58;6.10;;;6.00;;
673;SDS011;319;48.764;9.174;2023-08-30T14:36:25;5.20;;;5.10;;
673;SDS011;319;48.764;9.174;2023-08-30T14:38:54;5.50;;;5.40;;
673;SDS011;319;48.764;9.174;2023-08-30T14:41:21;6.00;;;5.90;;
673;SDS011;319;48.764;9.174;2023-08-30T14:43:48;5.97;;;5.87;;
673;SDS011;319;48.764;9.174;2023-08-30T14:46:15;6.43;;;6.23;;
673;SDS011;319;48.764;9.174;2023-08-30T14:48:47;5.90;;;5.80;;
673;SDS011;319;48.764;9.174;2023-08-30T14:51:14;6.60;;;6.40;;
673;SDS011;319;48.764;9.174;2023-08-30T14:53:41;5.73;;;5.63;;
673;SDS011;319;48.764;9.174;2023-08-30T14:56:11;8.43;;;8.23;;
673;SDS011;319;48.764;9.174;2023-08-30T14:58:38;8.43;;;8.23;;
673;SDS011;319;48.764;9.174;2023-08-30T15:01:05;7.30;;;7.10;;
673;SDS011;319;48.764;9.174;2023-08-30T15:03:32;7.20;;;7.00;;
673;SDS011;319;48.764;9.174;2023-08-30T15:06:00;9.77;;;9.57;;
673;SDS011;319;48.764;9.174;2023-08-30T15:08:27;8.93;;;8.73;;
673;SDS011;319;48.764;9.174;2023-08-30T15:10:56;8.37;;;8.17;;
673;SDS011;319;48.764;9.174;2023-08-30T15:13:25;0.90;;;0.90;;
673;SDS011;319;48.764;9.174;2023-08-30T15:15:52;0.90;;;0.90;;
673;SDS011;319;48.764;9.174;2023-08-30T15:18:19;1.00;;;1.00;;
673;SDS011;319;48.764;9.174;2023-08-30T15:20:46;0.90;;;0.90;;
673;SDS011;319;48.764;9.174;2023-08-30T15:23:16;5.83;;;5.73;;
673;SDS011;319;48.764;9.174;2023-08-30T15:25:44;1.00;;;1.00;;
673;SDS011;319;48.764;9.174;2023-08-30T15:28:12;1.20;;;1.20;;
673;SDS011;319;48.764;9.174;2023-08-30T15:30:45;1.80;;;1.80;;
673;SDS011;319;48.764;9.174;2023-08-30T15:33:15;4.57;;;4.47;;
673;SDS011;319;48.764;9.174;2023-08-30T15:35:42;1.97;;;1.97;;
673;SDS011;319;48.764;9.174;2023-08-30T15:38:10;5.63;;;5.53;;
673;SDS011;319;48.764;9.174;2023-08-30T15:40:39;6.90;;;6.70;;
673;SDS011;319;48.764;9.174;2023-08-30T15:43:08;6.13;;;6.03;;
673;SDS011;319;48.764;9.174;2023-08-30T15:45:36;1.20;;;1.20;;
673;SDS011;319;48.764;9.174;2023-08-30T15:48:05;1.00;;;1.00;;
673;SDS011;319;48.764;9.174;2023-08-30T15:50:35;1.90;;;1.90;;